Time;durP1;ratioP1;P1;durP2;ratioP2;P2;SDS_P1;SDS_P2;PMS_P1;PMS_P2;Temp;Humidity;BMP_temperature;BMP_pressure;BME280_temperature;BME280_humidity;BME280_pressure;Samples;Min_cycle;Max_cycle;Signal;HPM_P1;HPM_P2
2022/01/04 00:01:52;;;;;;;;;;;8.20;99.90;;;;;;5079814;28;20150;-72
2022/01/04 00:04:19;;;;;;;;;;;8.10;99.90;;;;;;5084697;28;19963;-70
2022/01/04 00:06:46;;;;;;;;;;;8.10;99.90;;;;;;5083821;28;20214;-71
2022/01/04 00:09:13;;;;;;;;;;;8.10;99.90;;;;;;5084674;28;19973;-71
2022/01/04 00:11:57;;;;;;;;;;;8.10;99.90;;;;;;5084204;28;19921;-72
2022/01/04 00:14:25;;;;;;;;;;;8.00;99.90;;;;;;5083945;28;19963;-72
2022/01/04 00:16:55;;;;;;;;;;;8.00;99.90;;;;;;5081346;28;19924;-71
2022/01/04 00:19:21;;;;;;;;;;;8.00;99.90;;;;;;5082707;28;19929;-72
2022/01/04 00:21:48;;;;;;;;;;;8.00;99.90;;;;;;5082389;28;19921;-71
2022/01/04 00:24:15;;;;;;;;;;;8.00;99.90;;;;;;5084127;28;20230;-71
2022/01/04 00:26:41;;;;;;;;;;;7.90;99.90;;;;;;5084499;28;19921;-71
2022/01/04 00:29:08;;;;;;;;;;;8.00;99.90;;;;;;5084049;28;19984;-71
2022/01/04 00:31:36;;;;;;;;;;;7.90;99.90;;;;;;5084135;28;19921;-72
2022/01/04 00:34:02;;;;;;;;;;;7.90;99.90;;;;;;5083453;28;20208;-72
2022/01/04 00:36:29;;;;;;;;;;;7.80;99.90;;;;;;5081717;28;19950;-73
2022/01/04 00:38:55;;;;;;;;;;;7.80;99.90;;;;;;5068278;28;20168;-71
2022/01/04 00:41:22;;;;;;;;;;;7.80;99.90;;;;;;5063506;28;19933;-72
2022/01/04 00:43:48;;;;;;;;;;;7.80;99.90;;;;;;5063550;28;19921;-72
2022/01/04 00:46:17;;;;;;;;;;;7.80;99.90;;;;;;5063690;28;19921;-71
2022/01/04 00:51:29;;;;;;;;;;;7.90;99.90;;;;;;5083860;28;19927;-72
2022/01/04 00:53:56;;;;;;;;;;;7.90;99.90;;;;;;5083137;28;19935;-72
2022/01/04 00:56:23;;;;;;;;;;;7.90;99.90;;;;;;5083862;28;19920;-72
2022/01/04 00:58:49;;;;;;;;;;;7.90;99.90;;;;;;5078817;28;19924;-71
2022/01/04 01:01:16;;;;;;;;;;;7.90;99.90;;;;;;5071894;28;19980;-71
2022/01/04 01:03:42;;;;;;;;;;;7.90;99.90;;;;;;5063565;28;19927;-72
2022/01/04 01:06:10;;;;;;;;;;;7.90;99.90;;;;;;5064176;28;19921;-72
2022/01/04 01:08:37;;;;;;;;;;;7.90;99.90;;;;;;5083596;28;19928;-72
2022/01/04 01:11:05;;;;;;;;;;;7.80;99.90;;;;;;5078570;28;19928;-71
2022/01/04 01:13:32;;;;;;;;;;;7.80;99.90;;;;;;5083328;28;19920;-72
2022/01/04 01:15:58;;;;;;;;;;;7.80;99.90;;;;;;5083882;28;19921;-71
2022/01/04 01:18:25;;;;;;;;;;;7.90;99.90;;;;;;5082736;28;19920;-72
2022/01/04 01:20:52;;;;;;;;;;;7.90;99.90;;;;;;5077747;28;20161;-72
2022/01/04 01:23:20;;;;;;;;;;;7.90;99.90;;;;;;5083801;28;19979;-71
2022/01/04 01:25:47;;;;;;;;;;;8.00;99.90;;;;;;5083415;28;19921;-71
2022/01/04 01:28:14;;;;;;;;;;;7.90;99.90;;;;;;5083633;28;19924;-72
2022/01/04 01:30:41;;;;;;;;;;;7.90;99.90;;;;;;5076121;28;20155;-71
2022/01/04 01:33:08;;;;;;;;;;;7.90;99.90;;;;;;5063662;28;19967;-71
2022/01/04 01:35:35;;;;;;;;;;;8.00;99.90;;;;;;5063431;28;20116;-72
2022/01/04 01:38:02;;;;;;;;;;;8.00;99.90;;;;;;5078764;28;19927;-71
2022/01/04 01:40:30;;;;;;;;;;;8.00;99.90;;;;;;5077600;28;19979;-72
2022/01/04 01:42:56;;;;;;;;;;;7.90;99.90;;;;;;5063575;28;19921;-71
2022/01/04 01:45:23;;;;;;;;;;;8.00;99.90;;;;;;5063120;28;19928;-71
2022/01/04 01:47:50;;;;;;;;;;;8.10;99.90;;;;;;5063126;28;20243;-72
2022/01/04 01:50:17;;;;;;;;;;;8.10;99.90;;;;;;5062961;28;19920;-72
2022/01/04 01:52:46;;;;;;;;;;;8.10;99.90;;;;;;5063040;28;19920;-72
2022/01/04 01:55:13;;;;;;;;;;;8.20;99.90;;;;;;5062687;28;19921;-72
2022/01/04 01:57:41;;;;;;;;;;;8.20;99.90;;;;;;5063038;28;19944;-71
2022/01/04 02:00:08;;;;;;;;;;;8.30;99.90;;;;;;5062868;28;20236;-72
2022/01/04 02:02:35;;;;;;;;;;;8.40;99.90;;;;;;5062700;28;19921;-72
2022/01/04 02:05:02;;;;;;;;;;;8.40;99.90;;;;;;5066024;28;19927;-71
2022/01/04 02:07:30;;;;;;;;;;;8.40;99.90;;;;;;5073659;28;19920;-72
2022/01/04 02:10:02;;;;;;;;;;;8.50;99.90;;;;;;5079175;28;19927;-72
2022/01/04 02:12:32;;;;;;;;;;;8.40;99.90;;;;;;5071983;28;19964;-72
2022/01/04 02:15:00;;;;;;;;;;;8.50;99.90;;;;;;5068217;28;19921;-71
2022/01/04 02:17:26;;;;;;;;;;;8.50;99.90;;;;;;5082350;28;19920;-71
2022/01/04 02:19:55;;;;;;;;;;;8.60;99.90;;;;;;5082978;28;20208;-72
2022/01/04 02:22:22;;;;;;;;;;;8.60;99.90;;;;;;5082996;28;19921;-71
2022/01/04 02:24:49;;;;;;;;;;;8.60;99.90;;;;;;5083028;28;19920;-71
2022/01/04 02:27:17;;;;;;;;;;;8.60;99.90;;;;;;5080061;28;19920;-72
2022/01/04 02:29:44;;;;;;;;;;;8.60;99.90;;;;;;5078971;22;19922;-71
2022/01/04 02:32:11;;;;;;;;;;;8.70;99.90;;;;;;5041454;28;20208;-71
2022/01/04 02:34:37;;;;;;;;;;;8.70;99.90;;;;;;5046059;28;19931;-71
2022/01/04 02:37:05;;;;;;;;;;;8.70;99.90;;;;;;5045489;28;19921;-70
2022/01/04 02:39:34;;;;;;;;;;;8.70;99.90;;;;;;5046044;28;19921;-72
2022/01/04 02:42:01;;;;;;;;;;;8.70;99.90;;;;;;5045911;28;19928;-71
2022/01/04 02:44:28;;;;;;;;;;;8.70;99.90;;;;;;5045897;28;19927;-71
2022/01/04 02:46:54;;;;;;;;;;;8.70;99.90;;;;;;5045998;28;19922;-71
2022/01/04 02:49:21;;;;;;;;;;;8.70;99.90;;;;;;5045910;28;19924;-71
2022/01/04 02:51:47;;;;;;;;;;;8.70;99.90;;;;;;5045906;28;19947;-71
2022/01/04 02:54:15;;;;;;;;;;;8.70;99.90;;;;;;5045532;28;19921;-71
2022/01/04 02:56:42;;;;;;;;;;;8.70;99.90;;;;;;5037612;28;19922;-71
2022/01/04 02:59:08;;;;;;;;;;;8.70;99.90;;;;;;5026018;28;19988;-71
2022/01/04 03:01:35;;;;;;;;;;;8.70;99.90;;;;;;5026042;28;20196;-71
2022/01/04 03:04:02;;;;;;;;;;;8.70;99.90;;;;;;5025696;28;20166;-72
2022/01/04 03:06:28;;;;;;;;;;;8.70;99.90;;;;;;5025558;28;19922;-71
2022/01/04 03:08:55;;;;;;;;;;;8.90;99.90;;;;;;5033963;28;19921;-71
2022/01/04 03:11:23;;;;;;;;;;;8.80;99.90;;;;;;5040937;28;19929;-71
2022/01/04 03:13:49;;;;;;;;;;;8.80;99.90;;;;;;5045549;28;19921;-71
2022/01/04 03:16:16;;;;;;;;;;;8.80;99.90;;;;;;5045889;28;19927;-71
2022/01/04 03:19:02;;;;;;;;;;;8.80;99.90;;;;;;5045690;28;19921;-71
2022/01/04 03:21:29;;;;;;;;;;;8.80;99.90;;;;;;5045340;28;19959;-71
2022/01/04 03:23:55;;;;;;;;;;;8.90;99.90;;;;;;5044811;28;19936;-71
2022/01/04 03:26:23;;;;;;;;;;;8.80;99.90;;;;;;5045011;28;19984;-71
2022/01/04 03:28:50;;;;;;;;;;;8.80;99.90;;;;;;5040712;28;20089;-71
2022/01/04 03:31:16;;;;;;;;;;;8.90;99.90;;;;;;5045012;28;19931;-71
2022/01/04 03:33:43;;;;;;;;;;;8.80;99.90;;;;;;5042988;28;19980;-71
2022/01/04 03:36:10;;;;;;;;;;;8.80;99.90;;;;;;5042537;28;19921;-71
2022/01/04 03:38:36;;;;;;;;;;;8.80;99.90;;;;;;5040129;28;19921;-71
2022/01/04 03:41:03;;;;;;;;;;;8.90;99.90;;;;;;5045147;28;20112;-71
2022/01/04 03:43:32;;;;;;;;;;;8.80;99.90;;;;;;5044833;28;19921;-71
2022/01/04 03:45:58;;;;;;;;;;;8.90;99.90;;;;;;5044732;28;19921;-71
2022/01/04 03:48:25;;;;;;;;;;;8.90;99.90;;;;;;5039801;28;19928;-71
2022/01/04 03:50:52;;;;;;;;;;;8.90;99.90;;;;;;5041415;28;19921;-71
2022/01/04 03:53:18;;;;;;;;;;;8.90;99.90;;;;;;5043885;28;19921;-71
2022/01/04 03:55:45;;;;;;;;;;;8.90;99.90;;;;;;5044260;28;19921;-71
2022/01/04 03:58:11;;;;;;;;;;;8.90;99.90;;;;;;5044745;28;19928;-70
2022/01/04 04:00:39;;;;;;;;;;;8.90;99.90;;;;;;5042585;28;19927;-71
2022/01/04 04:03:06;;;;;;;;;;;8.90;99.90;;;;;;5033217;28;19927;-71
2022/01/04 04:05:32;;;;;;;;;;;8.90;99.90;;;;;;5044168;28;19927;-71
2022/01/04 04:07:59;;;;;;;;;;;8.80;99.90;;;;;;5044688;28;19928;-73
2022/01/04 04:10:25;;;;;;;;;;;8.80;99.90;;;;;;5044200;28;19921;-72
2022/01/04 04:12:52;;;;;;;;;;;8.80;99.90;;;;;;5036706;28;19921;-71
2022/01/04 04:15:19;;;;;;;;;;;8.80;99.90;;;;;;5023942;28;20201;-71
2022/01/04 04:17:47;;;;;;;;;;;8.80;99.90;;;;;;5024621;28;20232;-71
2022/01/04 04:20:14;;;;;;;;;;;8.80;99.90;;;;;;5024651;28;19984;-71
2022/01/04 04:22:41;;;;;;;;;;;8.80;99.90;;;;;;5024237;28;19925;-71
2022/01/04 04:25:08;;;;;;;;;;;8.90;99.90;;;;;;5030936;28;19921;-71
2022/01/04 04:27:34;;;;;;;;;;;8.90;99.90;;;;;;5044183;28;19921;-71
2022/01/04 04:30:01;;;;;;;;;;;8.90;99.90;;;;;;5044291;28;20119;-70
2022/01/04 04:32:28;;;;;;;;;;;8.90;99.90;;;;;;5027558;28;19984;-72
2022/01/04 04:34:56;;;;;;;;;;;8.90;99.90;;;;;;5023903;28;19922;-71
2022/01/04 04:37:24;;;;;;;;;;;8.90;99.90;;;;;;5021967;28;19929;-71
2022/01/04 04:39:51;;;;;;;;;;;8.90;99.90;;;;;;5024268;28;20136;-72
2022/01/04 04:42:17;;;;;;;;;;;8.90;99.90;;;;;;5025362;28;19929;-71
2022/01/04 04:44:45;;;;;;;;;;;8.90;99.90;;;;;;5043546;28;20108;-71
2022/01/04 04:47:11;;;;;;;;;;;8.90;99.90;;;;;;5044358;28;19964;-71
2022/01/04 04:49:38;;;;;;;;;;;8.90;99.90;;;;;;5044038;28;19927;-71
2022/01/04 04:52:06;;;;;;;;;;;8.90;99.90;;;;;;5039343;28;20108;-71
2022/01/04 04:54:33;;;;;;;;;;;8.90;99.90;;;;;;5042912;28;19921;-70
2022/01/04 04:56:59;;;;;;;;;;;8.90;99.90;;;;;;5043778;28;19928;-71
2022/01/04 04:59:26;;;;;;;;;;;8.90;99.90;;;;;;5043558;28;19928;-71
2022/01/04 05:01:53;;;;;;;;;;;8.90;99.90;;;;;;5043421;28;20278;-71
2022/01/04 05:04:19;;;;;;;;;;;8.90;99.90;;;;;;5041174;28;19922;-71
2022/01/04 05:06:46;;;;;;;;;;;8.90;99.90;;;;;;5043770;28;19927;-71
2022/01/04 05:09:14;;;;;;;;;;;8.90;99.90;;;;;;5043820;28;19928;-71
2022/01/04 05:11:41;;;;;;;;;;;8.90;99.90;;;;;;5043259;28;19922;-71
2022/01/04 05:14:07;;;;;;;;;;;8.90;99.90;;;;;;5038295;28;20312;-70
2022/01/04 05:16:34;;;;;;;;;;;8.90;99.90;;;;;;5023893;28;19921;-71
2022/01/04 05:19:00;;;;;;;;;;;8.80;99.90;;;;;;5023894;28;19921;-71
2022/01/04 05:21:27;;;;;;;;;;;8.90;99.90;;;;;;5023366;28;19925;-71
2022/01/04 05:23:54;;;;;;;;;;;8.90;99.90;;;;;;5038952;28;19927;-71
2022/01/04 05:26:22;;;;;;;;;;;8.90;99.90;;;;;;5043361;28;19921;-71
2022/01/04 05:28:49;;;;;;;;;;;8.80;99.90;;;;;;5040835;28;19921;-71
2022/01/04 05:31:15;;;;;;;;;;;8.80;99.90;;;;;;5042533;28;20120;-71
2022/01/04 05:33:42;;;;;;;;;;;8.80;99.90;;;;;;5037333;28;19945;-71
2022/01/04 05:36:08;;;;;;;;;;;8.80;99.90;;;;;;5023365;28;20213;-71
2022/01/04 05:38:35;;;;;;;;;;;8.70;99.90;;;;;;5021231;28;19945;-71
2022/01/04 05:41:02;;;;;;;;;;;8.70;99.90;;;;;;5027099;28;19921;-71
2022/01/04 05:43:29;;;;;;;;;;;8.70;99.90;;;;;;5043340;28;19921;-70
2022/01/04 05:45:56;;;;;;;;;;;8.70;99.90;;;;;;5042977;28;20207;-72
2022/01/04 05:48:23;;;;;;;;;;;8.70;99.90;;;;;;5043380;28;19992;-71
2022/01/04 05:50:49;;;;;;;;;;;8.70;99.90;;;;;;5043109;28;19927;-71
2022/01/04 05:53:16;;;;;;;;;;;8.60;99.90;;;;;;5032521;28;19927;-70
2022/01/04 05:55:43;;;;;;;;;;;8.60;99.90;;;;;;5022587;28;19921;-71
2022/01/04 05:58:09;;;;;;;;;;;8.60;99.90;;;;;;5023455;28;19929;-70
2022/01/04 06:00:38;;;;;;;;;;;8.50;99.90;;;;;;5024107;28;20212;-72
2022/01/04 06:03:04;;;;;;;;;;;8.50;99.90;;;;;;5040119;28;19932;-71
2022/01/04 06:05:31;;;;;;;;;;;8.50;99.90;;;;;;5043222;28;20224;-70
2022/01/04 06:07:58;;;;;;;;;;;8.50;99.90;;;;;;5046768;28;19921;-70
2022/01/04 06:10:25;;;;;;;;;;;8.40;99.90;;;;;;5046670;28;20208;-71
2022/01/04 06:15:38;;;;;;;;;;;8.40;99.90;;;;;;5026462;28;19960;-71
2022/01/04 06:18:06;;;;;;;;;;;8.40;99.90;;;;;;5026950;28;19981;-71
2022/01/04 06:20:32;;;;;;;;;;;8.40;99.90;;;;;;5026688;28;19921;-71
2022/01/04 06:22:59;;;;;;;;;;;8.40;99.90;;;;;;5026433;28;19921;-71
2022/01/04 06:25:26;;;;;;;;;;;8.40;99.90;;;;;;5025972;28;19921;-71
2022/01/04 06:27:53;;;;;;;;;;;8.40;99.90;;;;;;5026561;28;19937;-71
2022/01/04 06:30:20;;;;;;;;;;;8.40;99.90;;;;;;5026470;28;19925;-71
2022/01/04 06:32:49;;;;;;;;;;;8.40;99.90;;;;;;5025114;28;20143;-70
2022/01/04 06:35:17;;;;;;;;;;;8.40;99.90;;;;;;5026240;28;19921;-70
2022/01/04 06:37:44;;;;;;;;;;;8.40;99.90;;;;;;5026567;28;20201;-71
2022/01/04 06:40:12;;;;;;;;;;;8.40;99.90;;;;;;5024056;28;19992;-70
2022/01/04 06:42:38;;;;;;;;;;;8.40;99.90;;;;;;5034578;28;20216;-70
2022/01/04 06:45:06;;;;;;;;;;;8.40;99.90;;;;;;5045798;28;19927;-70
2022/01/04 06:47:32;;;;;;;;;;;8.30;99.90;;;;;;5046030;28;19921;-72
2022/01/04 06:49:59;;;;;;;;;;;8.30;99.90;;;;;;5046134;28;19929;-71
2022/01/04 06:52:27;;;;;;;;;;;8.30;99.90;;;;;;5045959;28;19943;-70
2022/01/04 06:54:53;;;;;;;;;;;8.30;99.90;;;;;;5043895;28;19921;-70
2022/01/04 06:57:20;;;;;;;;;;;8.20;99.90;;;;;;5046198;28;19980;-70
2022/01/04 06:59:46;;;;;;;;;;;8.30;99.90;;;;;;5046449;28;19929;-71
2022/01/04 07:02:13;;;;;;;;;;;8.20;99.90;;;;;;5045517;28;19933;-70
2022/01/04 07:04:40;;;;;;;;;;;8.20;99.90;;;;;;5043052;28;19921;-70
2022/01/04 07:07:06;;;;;;;;;;;8.30;99.90;;;;;;5041291;28;19980;-71
2022/01/04 07:09:34;;;;;;;;;;;8.30;99.90;;;;;;5044400;28;19921;-70
2022/01/04 07:12:01;;;;;;;;;;;8.30;99.90;;;;;;5044791;28;20118;-71
2022/01/04 07:14:27;;;;;;;;;;;8.30;99.90;;;;;;5044866;28;19925;-70
2022/01/04 07:16:54;;;;;;;;;;;8.30;99.90;;;;;;5034065;28;19921;-71
2022/01/04 07:19:22;;;;;;;;;;;8.30;99.90;;;;;;5041754;28;20176;-72
2022/01/04 07:21:49;;;;;;;;;;;8.30;99.90;;;;;;5045641;28;19921;-71
2022/01/04 07:24:15;;;;;;;;;;;8.30;99.90;;;;;;5045204;28;19921;-71
2022/01/04 07:26:43;;;;;;;;;;;8.30;99.90;;;;;;5045469;28;19929;-70
2022/01/04 07:29:10;;;;;;;;;;;8.30;99.90;;;;;;5045546;28;20213;-72
2022/01/04 07:31:36;;;;;;;;;;;8.20;99.90;;;;;;5040259;28;19928;-71
2022/01/04 07:34:03;;;;;;;;;;;8.30;99.90;;;;;;5044971;28;19952;-71
2022/01/04 07:36:31;;;;;;;;;;;8.30;99.90;;;;;;5045624;28;19921;-70
2022/01/04 07:38:58;;;;;;;;;;;8.30;99.90;;;;;;5045605;28;19928;-71
2022/01/04 07:41:24;;;;;;;;;;;8.40;99.90;;;;;;5045181;28;19928;-71
2022/01/04 07:43:52;;;;;;;;;;;8.40;99.90;;;;;;5043108;28;19921;-71
2022/01/04 07:46:19;;;;;;;;;;;8.40;99.90;;;;;;5042292;28;20171;-71
2022/01/04 07:48:47;;;;;;;;;;;8.40;99.90;;;;;;5044408;28;20414;-71
2022/01/04 07:51:13;;;;;;;;;;;8.40;99.90;;;;;;5044845;28;19933;-71
2022/01/04 07:53:40;;;;;;;;;;;8.40;99.90;;;;;;5043746;28;19921;-71
2022/01/04 07:56:06;;;;;;;;;;;8.40;99.90;;;;;;5043252;28;19928;-70
2022/01/04 07:58:33;;;;;;;;;;;8.40;99.90;;;;;;5043029;28;20216;-71
2022/01/04 08:01:01;;;;;;;;;;;8.40;99.90;;;;;;5040212;28;20102;-71
2022/01/04 08:03:28;;;;;;;;;;;8.50;99.90;;;;;;5028947;28;20209;-72
2022/01/04 08:05:54;;;;;;;;;;;8.50;99.90;;;;;;5044338;28;19921;-71
2022/01/04 08:08:21;;;;;;;;;;;8.50;99.90;;;;;;5044672;28;20124;-71
2022/01/04 08:10:50;;;;;;;;;;;8.50;99.90;;;;;;5044753;28;19921;-73
2022/01/04 08:13:16;;;;;;;;;;;8.50;99.90;;;;;;5037646;28;19928;-73
2022/01/04 08:15:43;;;;;;;;;;;8.60;99.90;;;;;;5024203;28;19928;-73
2022/01/04 08:18:11;;;;;;;;;;;8.60;99.90;;;;;;5025972;28;19964;-73
2022/01/04 08:20:37;;;;;;;;;;;8.60;99.90;;;;;;5055726;28;19927;-72
2022/01/04 08:23:04;;;;;;;;;;;8.60;99.90;;;;;;5044387;28;19921;-72
2022/01/04 08:25:31;;;;;;;;;;;8.60;99.90;;;;;;5043709;28;19921;-72
2022/01/04 08:27:58;;;;;;;;;;;8.60;99.90;;;;;;5043788;28;19959;-72
2022/01/04 08:30:24;;;;;;;;;;;8.60;99.90;;;;;;5044010;28;19928;-72
2022/01/04 08:32:53;;;;;;;;;;;8.60;99.90;;;;;;5063886;22;19913;-95
2022/01/04 08:35:22;;;;;;;;;;;8.60;99.90;;;;;;5037864;28;19921;-93
2022/01/04 08:37:49;;;;;;;;;;;8.70;99.90;;;;;;5029727;28;19917;-94
2022/01/04 08:40:15;;;;;;;;;;;8.70;99.90;;;;;;5018779;28;19913;-94
2022/01/04 08:42:42;;;;;;;;;;;8.70;99.90;;;;;;5018957;28;19910;-96
2022/01/04 08:45:09;;;;;;;;;;;8.70;99.90;;;;;;5017579;28;19969;-94
2022/01/04 08:47:36;;;;;;;;;;;8.70;99.90;;;;;;5033966;28;19913;-95
2022/01/04 08:50:04;;;;;;;;;;;8.70;99.90;;;;;;5038159;28;19913;-93
2022/01/04 08:52:32;;;;;;;;;;;8.70;99.90;;;;;;5038768;28;19994;-92
2022/01/04 08:54:58;;;;;;;;;;;8.70;99.90;;;;;;5018446;28;20240;-93
2022/01/04 08:57:25;;;;;;;;;;;8.70;99.90;;;;;;5017367;28;19941;-94
2022/01/04 08:59:54;;;;;;;;;;;8.80;99.90;;;;;;5017315;28;19986;-93
2022/01/04 09:02:21;;;;;;;;;;;8.80;99.90;;;;;;5018422;28;19969;-94
2022/01/04 09:04:48;;;;;;;;;;;8.80;99.90;;;;;;5025209;28;19914;-94
2022/01/04 09:07:14;;;;;;;;;;;8.80;99.90;;;;;;5038190;28;19951;-94
2022/01/04 09:09:42;;;;;;;;;;;8.80;99.90;;;;;;5038039;28;19948;-93
2022/01/04 09:12:10;;;;;;;;;;;8.80;99.90;;;;;;5038094;28;19973;-94
2022/01/04 09:14:53;;;;;;;;;;;8.80;99.90;;;;;;5037731;28;19944;-93
2022/01/04 09:20:06;;;;;;;;;;;8.90;99.90;;;;;;5038149;28;19940;-93
2022/01/04 09:22:32;;;;;;;;;;;9.00;99.90;;;;;;5036331;28;19923;-94
2022/01/04 09:25:00;;;;;;;;;;;8.90;99.90;;;;;;5021226;28;19973;-94
2022/01/04 09:27:28;;;;;;;;;;;9.00;99.90;;;;;;5018290;28;19986;-94
2022/01/04 09:29:55;;;;;;;;;;;8.90;99.90;;;;;;5018106;28;19917;-94
2022/01/04 09:32:22;;;;;;;;;;;9.10;99.90;;;;;;5018048;28;19974;-94
2022/01/04 09:34:48;;;;;;;;;;;9.10;99.90;;;;;;5028698;28;19953;-94
2022/01/04 09:37:15;;;;;;;;;;;9.20;99.90;;;;;;5034724;28;19929;-93
2022/01/04 09:39:42;;;;;;;;;;;9.10;99.90;;;;;;5019503;28;19945;-95
2022/01/04 09:42:10;;;;;;;;;;;9.10;99.90;;;;;;5022116;28;19969;-94
2022/01/04 09:44:37;;;;;;;;;;;9.20;99.90;;;;;;5029521;28;19964;-94
2022/01/04 09:47:05;;;;;;;;;;;9.20;99.90;;;;;;5040330;28;19933;-93
2022/01/04 09:49:31;;;;;;;;;;;9.30;99.90;;;;;;5041551;28;19921;-94
2022/01/04 09:51:58;;;;;;;;;;;9.30;99.90;;;;;;5041251;28;19928;-93
2022/01/04 09:54:26;;;;;;;;;;;9.30;99.90;;;;;;5041459;28;19969;-94
2022/01/04 09:56:53;;;;;;;;;;;9.40;99.90;;;;;;5036110;28;19909;-93
2022/01/04 09:59:21;;;;;;;;;;;9.40;99.90;;;;;;5041154;28;19969;-93
2022/01/04 10:01:53;;;;;;;;;;;9.40;99.90;;;;;;5040598;28;19913;-93
2022/01/04 10:04:23;;;;;;;;;;;9.40;99.90;;;;;;5035067;28;19914;-94
2022/01/04 10:07:00;;;;;;;;;;;9.50;99.90;;;;;;5041500;28;19910;-95
2022/01/04 10:09:37;;;;;;;;;;;9.40;99.90;;;;;;5041373;28;19920;-93
2022/01/04 10:12:05;;;;;;;;;;;9.60;99.90;;;;;;5041264;28;19934;-95
2022/01/04 10:14:35;;;;;;;;;;;9.60;99.90;;;;;;5035586;28;19989;-92
2022/01/04 10:17:03;;;;;;;;;;;9.70;99.90;;;;;;5041286;28;19924;-93
2022/01/04 10:19:31;;;;;;;;;;;9.90;99.90;;;;;;5041106;28;19910;-92
2022/01/04 10:22:25;;;;;;;;;;;9.90;99.90;;;;;;5041071;28;19910;-93
2022/01/04 10:25:08;;;;;;;;;;;10.00;99.90;;;;;;5017004;28;19952;-92
2022/01/04 10:27:35;;;;;;;;;;;10.10;99.90;;;;;;5036672;28;19996;-92
2022/01/04 10:30:20;;;;;;;;;;;10.20;99.90;;;;;;5040729;28;19920;-92
2022/01/04 10:32:57;;;;;;;;;;;10.20;99.90;;;;;;5040753;28;19924;-92
2022/01/04 10:35:28;;;;;;;;;;;10.30;99.90;;;;;;5040218;28;19969;-92
2022/01/04 10:37:56;;;;;;;;;;;10.30;99.90;;;;;;5040094;28;19989;-94
2022/01/04 10:40:25;;;;;;;;;;;10.30;99.90;;;;;;5024339;28;19944;-95
2022/01/04 10:42:51;;;;;;;;;;;10.40;99.90;;;;;;5020753;28;19952;-93
2022/01/04 10:45:24;;;;;;;;;;;10.50;99.90;;;;;;5020451;28;20044;-94
2022/01/04 10:47:51;;;;;;;;;;;10.40;99.90;;;;;;5020294;28;19953;-94
2022/01/04 10:50:28;;;;;;;;;;;10.40;99.90;;;;;;5038101;28;19913;-94
2022/01/04 10:52:55;;;;;;;;;;;10.50;99.90;;;;;;5037592;28;19981;-93
2022/01/04 10:55:22;;;;;;;;;;;10.40;99.90;;;;;;5039793;28;19982;-94
2022/01/04 10:57:49;;;;;;;;;;;10.50;99.90;;;;;;5041146;28;19977;-93
2022/01/04 11:00:16;;;;;;;;;;;10.50;99.90;;;;;;5038951;28;19937;-94
2022/01/04 11:02:45;;;;;;;;;;;10.60;99.90;;;;;;5037194;28;19968;-94
2022/01/04 11:05:12;;;;;;;;;;;10.60;99.90;;;;;;5021933;28;20065;-94
2022/01/04 11:07:56;;;;;;;;;;;10.60;99.90;;;;;;5019921;28;19925;-93
2022/01/04 11:10:23;;;;;;;;;;;10.60;99.90;;;;;;5019323;28;19917;-93
2022/01/04 11:12:50;;;;;;;;;;;10.60;99.90;;;;;;5020384;28;19977;-94
2022/01/04 11:15:16;;;;;;;;;;;10.80;99.90;;;;;;5025715;28;19977;-92
2022/01/04 11:17:44;;;;;;;;;;;10.70;99.90;;;;;;5029919;28;19977;-92
2022/01/04 11:20:12;;;;;;;;;;;10.70;99.90;;;;;;5038795;28;19934;-94
2022/01/04 11:22:40;;;;;;;;;;;10.60;99.90;;;;;;5038889;28;19985;-96
2022/01/04 11:25:07;;;;;;;;;;;10.70;99.90;;;;;;5039322;28;19917;-94
2022/01/04 11:27:36;;;;;;;;;;;10.70;99.90;;;;;;5039723;28;19914;-94
2022/01/04 11:30:04;;;;;;;;;;;10.70;99.90;;;;;;5038493;28;19941;-93
2022/01/04 11:32:31;;;;;;;;;;;10.80;99.90;;;;;;5037159;28;19944;-92
2022/01/04 11:35:08;;;;;;;;;;;10.80;99.90;;;;;;5019368;28;19941;-92
2022/01/04 11:37:35;;;;;;;;;;;10.70;99.90;;;;;;5020027;28;19983;-91
2022/01/04 11:40:21;;;;;;;;;;;10.80;99.90;;;;;;5019165;28;19941;-93
2022/01/04 11:42:47;;;;;;;;;;;10.80;99.90;;;;;;5019304;28;19928;-92
2022/01/04 11:45:16;;;;;;;;;;;10.80;99.90;;;;;;5018660;28;19916;-92
2022/01/04 11:47:47;;;;;;;;;;;10.90;99.90;;;;;;5024777;28;19944;-92
2022/01/04 11:50:16;;;;;;;;;;;10.90;99.90;;;;;;5033053;28;19937;-92
2022/01/04 11:52:45;;;;;;;;;;;10.90;99.90;;;;;;5036227;28;19948;-92
2022/01/04 11:55:16;;;;;;;;;;;10.90;99.90;;;;;;5036687;28;19914;-92
2022/01/04 11:57:43;;;;;;;;;;;10.90;99.90;;;;;;5031554;28;19941;-92
2022/01/04 12:00:13;;;;;;;;;;;10.90;99.90;;;;;;5037375;28;19922;-93
2022/01/04 12:02:43;;;;;;;;;;;11.00;99.90;;;;;;5038082;28;19985;-93
2022/01/04 12:05:13;;;;;;;;;;;10.90;99.90;;;;;;5036694;28;19926;-92
2022/01/04 12:07:47;;;;;;;;;;;10.90;99.90;;;;;;5043266;28;19966;-91
2022/01/04 12:10:34;;;;;;;;;;;10.90;99.90;;;;;;5058013;28;19997;-92
2022/01/04 12:13:01;;;;;;;;;;;10.90;99.90;;;;;;5044250;28;19916;-92
2022/01/04 12:15:47;;;;;;;;;;;10.90;99.90;;;;;;5038638;28;19937;-92
2022/01/04 12:18:28;;;;;;;;;;;11.00;99.90;;;;;;5038799;28;19941;-91
2022/01/04 12:20:56;;;;;;;;;;;11.00;99.90;;;;;;5046993;28;19976;-91
2022/01/04 12:23:41;;;;;;;;;;;11.00;99.90;;;;;;5039747;28;19960;-92
2022/01/04 12:26:22;;;;;;;;;;;11.00;99.90;;;;;;5036438;28;19977;-92
2022/01/04 12:29:04;;;;;;;;;;;11.00;99.90;;;;;;5036035;28;19933;-92
2022/01/04 12:31:34;;;;;;;;;;;11.00;99.90;;;;;;5035111;28;19934;-92
2022/01/04 12:34:02;;;;;;;;;;;11.00;99.90;;;;;;5036856;28;19920;-93
2022/01/04 12:36:29;;;;;;;;;;;10.90;99.90;;;;;;5037071;28;19985;-92
2022/01/04 12:38:58;;;;;;;;;;;11.00;99.90;;;;;;5037104;28;19949;-92
2022/01/04 12:41:26;;;;;;;;;;;11.00;99.90;;;;;;5036983;28;19932;-92
2022/01/04 12:43:54;;;;;;;;;;;10.90;99.90;;;;;;5034979;28;19919;-91
2022/01/04 12:46:25;;;;;;;;;;;10.90;99.90;;;;;;5020457;28;19981;-90
2022/01/04 12:48:53;;;;;;;;;;;10.90;99.90;;;;;;5018107;28;19922;-92
2022/01/04 12:51:24;;;;;;;;;;;10.90;99.90;;;;;;5032385;28;19922;-92
2022/01/04 12:53:51;;;;;;;;;;;10.90;99.90;;;;;;5033573;28;19929;-94
2022/01/04 12:56:18;;;;;;;;;;;10.80;99.90;;;;;;5037600;28;19985;-94
2022/01/04 12:58:46;;;;;;;;;;;10.90;99.90;;;;;;5035587;28;19914;-94
2022/01/04 13:01:13;;;;;;;;;;;10.90;99.90;;;;;;5035467;28;19986;-95
2022/01/04 13:03:40;;;;;;;;;;;10.80;99.90;;;;;;5034569;28;19949;-93
2022/01/04 13:06:07;;;;;;;;;;;10.80;99.90;;;;;;5026119;28;19980;-94
2022/01/04 13:08:35;;;;;;;;;;;10.80;99.90;;;;;;5027859;28;19916;-92
2022/01/04 13:11:02;;;;;;;;;;;10.80;99.90;;;;;;5029201;28;19952;-93
2022/01/04 13:13:35;;;;;;;;;;;10.80;99.90;;;;;;5032590;28;19969;-96
2022/01/04 13:16:17;;;;;;;;;;;10.80;99.90;;;;;;5053007;23;19921;-67
2022/01/04 13:18:45;;;;;;;;;;;10.80;99.90;;;;;;5043628;28;19928;-72
2022/01/04 13:21:12;;;;;;;;;;;10.70;99.90;;;;;;5026946;28;20094;-68
2022/01/04 13:23:39;;;;;;;;;;;10.80;99.90;;;;;;5042639;28;19936;-69
2022/01/04 13:26:09;;;;;;;;;;;10.80;99.90;;;;;;5018913;28;20186;-69
2022/01/04 13:28:36;;;;;;;;;;;10.80;99.90;;;;;;5022183;28;19921;-66
2022/01/04 13:31:03;;;;;;;;;;;10.70;99.90;;;;;;5020363;28;19929;-70
2022/01/04 13:33:29;;;;;;;;;;;10.70;99.90;;;;;;5019277;28;19921;-69
2022/01/04 13:35:57;;;;;;;;;;;10.70;99.90;;;;;;5021298;28;19922;-68
2022/01/04 13:38:26;;;;;;;;;;;10.80;99.90;;;;;;5019950;28;19928;-69
2022/01/04 13:40:57;;;;;;;;;;;10.80;99.90;;;;;;5022864;28;19925;-69
2022/01/04 13:43:27;;;;;;;;;;;10.80;99.90;;;;;;5023308;28;19928;-70
2022/01/04 13:45:54;;;;;;;;;;;10.80;99.90;;;;;;5022527;28;19921;-70
2022/01/04 13:48:22;;;;;;;;;;;10.80;99.90;;;;;;5018915;28;19975;-65
2022/01/04 13:50:49;;;;;;;;;;;10.80;99.90;;;;;;5016569;28;19921;-68
2022/01/04 13:53:17;;;;;;;;;;;10.80;99.90;;;;;;5023108;28;19922;-69
2022/01/04 13:55:49;;;;;;;;;;;10.60;99.90;;;;;;5022759;28;19921;-69
2022/01/04 13:58:35;;;;;;;;;;;10.40;99.90;;;;;;5022099;28;19922;-69
2022/01/04 14:01:18;;;;;;;;;;;10.20;99.90;;;;;;5008145;28;19929;-68
2022/01/04 14:03:45;;;;;;;;;;;10.00;99.90;;;;;;5002572;28;19933;-68
2022/01/04 14:06:34;;;;;;;;;;;9.90;99.90;;;;;;5003591;28;19957;-68
2022/01/04 14:09:03;;;;;;;;;;;9.70;99.90;;;;;;5003640;28;20054;-68
2022/01/04 14:11:31;;;;;;;;;;;9.50;99.90;;;;;;5014180;28;20011;-73
2022/01/04 14:14:06;;;;;;;;;;;9.30;99.90;;;;;;5018924;28;19930;-68
2022/01/04 14:16:40;;;;;;;;;;;9.10;99.90;;;;;;5003783;28;19929;-69
2022/01/04 14:19:08;;;;;;;;;;;8.90;99.90;;;;;;5016521;28;20116;-68
2022/01/04 14:21:35;;;;;;;;;;;8.70;99.90;;;;;;5023509;28;19921;-68
2022/01/04 14:24:04;;;;;;;;;;;8.60;99.90;;;;;;5009388;28;19929;-69
2022/01/04 14:26:30;;;;;;;;;;;8.50;99.90;;;;;;5005071;28;20251;-68
2022/01/04 14:28:57;;;;;;;;;;;8.50;99.90;;;;;;5024064;28;20264;-68
2022/01/04 14:31:24;;;;;;;;;;;8.40;99.90;;;;;;5026775;28;19976;-70
2022/01/04 14:33:50;;;;;;;;;;;8.20;99.90;;;;;;5054267;23;19921;-74
2022/01/04 14:36:17;;;;;;;;;;;8.10;99.90;;;;;;5047110;28;19921;-74
2022/01/04 14:38:45;;;;;;;;;;;8.00;99.90;;;;;;5046582;28;19921;-73
2022/01/04 14:41:13;;;;;;;;;;;7.80;99.90;;;;;;5046836;28;19989;-74